Terminal Aerodrome Forecast
Issued by NWS

Home | Current Version | Previous Version | Text Only | Print | Product List | Glossary On
Versions: 1 2 3 4 5 6 7 8 9 10 11 12 13 14 15 16 17 18 19
075
FTUS43 KAPX 232334
TAFMBL
TAF
KMBL 232334Z 2400/2424 03004KT P6SM OVC200
     FM240400 15008KT P6SM VCSH BKN090
     FM241100 21008KT P6SM SHRA OVC060
     FM241600 24009G17KT P6SM BKN040=

USA.gov is the U.S. government's official web portal to all federal, state and local government web resources and services.